createdAt,value
2022-09-24T00:00:40.999Z,99.90
2022-09-24T00:02:44.334Z,99.90
2022-09-24T00:04:47.591Z,99.90
2022-09-24T00:06:51.082Z,99.90
2022-09-24T00:08:56.243Z,99.90
2022-09-24T00:11:03.707Z,99.90
2022-09-24T00:13:07.764Z,99.90
2022-09-24T00:15:12.996Z,99.90
2022-09-24T00:17:16.348Z,99.90
2022-09-24T00:19:19.815Z,99.90
2022-09-24T00:21:25.316Z,99.90
2022-09-24T00:23:29.121Z,99.90
2022-09-24T00:25:50.083Z,99.90
2022-09-24T00:27:53.394Z,99.90
2022-09-24T00:29:57.111Z,99.90
2022-09-24T00:32:02.240Z,99.90
2022-09-24T00:34:05.710Z,99.90
2022-09-24T00:36:09.127Z,99.90
2022-09-24T00:38:12.624Z,99.90
2022-09-24T00:40:17.024Z,99.90
2022-09-24T00:42:21.089Z,99.90
2022-09-24T00:44:55.733Z,99.90
2022-09-24T00:46:59.122Z,99.90
2022-09-24T00:49:11.716Z,99.90
2022-09-24T00:51:18.134Z,99.90
2022-09-24T00:53:24.108Z,99.90
2022-09-24T00:55:28.963Z,99.90
2022-09-24T00:57:33.191Z,99.90
2022-09-24T00:59:37.283Z,99.90
2022-09-24T01:01:40.900Z,99.90
2022-09-24T01:03:44.239Z,99.90
2022-09-24T01:05:48.978Z,99.90
2022-09-24T01:07:52.857Z,99.90
2022-09-24T01:09:56.138Z,99.90
2022-09-24T01:12:10.008Z,99.90
2022-09-24T01:14:39.272Z,99.90
2022-09-24T01:16:49.826Z,99.90
2022-09-24T01:19:01.084Z,99.90
2022-09-24T01:21:20.077Z,99.90
2022-09-24T01:23:47.754Z,99.90
2022-09-24T01:26:05.895Z,99.90
2022-09-24T01:28:23.299Z,99.90
2022-09-24T01:30:32.589Z,99.90
2022-09-24T01:32:40.315Z,99.90
2022-09-24T01:34:53.787Z,99.90
2022-09-24T01:36:58.928Z,99.90
2022-09-24T01:39:04.674Z,99.90
2022-09-24T01:41:10.495Z,99.90
2022-09-24T01:43:15.970Z,99.90
2022-09-24T01:45:20.287Z,99.90
2022-09-24T01:47:34.969Z,99.90
2022-09-24T01:49:38.529Z,99.90
2022-09-24T01:51:48.840Z,99.90
2022-09-24T01:53:56.913Z,99.90
2022-09-24T01:56:05.304Z,99.90
2022-09-24T01:58:12.732Z,99.90
2022-09-24T02:00:19.148Z,99.90
2022-09-24T02:02:30.285Z,99.90
2022-09-24T02:04:39.608Z,99.90
2022-09-24T02:06:47.934Z,99.90
2022-09-24T02:08:51.403Z,99.90
2022-09-24T02:10:59.197Z,99.90
2022-09-24T02:13:08.120Z,99.90
2022-09-24T02:15:14.746Z,99.90
2022-09-24T02:17:18.789Z,99.90
2022-09-24T02:19:26.093Z,99.90
2022-09-24T02:21:31.659Z,99.90
2022-09-24T02:23:38.768Z,99.90
2022-09-24T02:25:47.481Z,99.90
2022-09-24T02:27:50.708Z,99.90
2022-09-24T02:29:54.147Z,99.90
2022-09-24T02:32:00.206Z,99.90
2022-09-24T02:34:22.656Z,99.90
2022-09-24T02:36:27.470Z,99.90
2022-09-24T02:38:30.715Z,99.90
2022-09-24T02:40:34.388Z,99.90
2022-09-24T02:42:39.436Z,99.90
2022-09-24T02:44:42.831Z,99.90
2022-09-24T02:46:46.753Z,99.90
2022-09-24T02:48:50.337Z,99.90
2022-09-24T02:50:53.941Z,99.90
2022-09-24T02:52:58.648Z,99.90
2022-09-24T02:55:02.045Z,99.90
2022-09-24T02:57:05.496Z,99.90
2022-09-24T02:59:09.834Z,99.90
2022-09-24T03:01:13.147Z,99.90
2022-09-24T03:03:16.563Z,99.90
2022-09-24T03:05:19.859Z,99.90
2022-09-24T03:07:23.281Z,99.90
2022-09-24T03:09:27.960Z,99.90
2022-09-24T03:11:33.138Z,99.90
2022-09-24T03:13:36.471Z,99.90
2022-09-24T03:15:39.817Z,99.90
2022-09-24T03:17:43.264Z,99.90
2022-09-24T03:19:46.591Z,99.90
2022-09-24T03:21:50.020Z,99.90
2022-09-24T03:23:53.795Z,99.90
2022-09-24T03:25:59.142Z,99.90
2022-09-24T03:28:02.774Z,99.90
2022-09-24T03:30:26.724Z,99.90
2022-09-24T03:32:32.311Z,99.90
2022-09-24T03:34:35.700Z,99.90
2022-09-24T03:36:39.461Z,99.90
2022-09-24T03:38:44.106Z,99.90
2022-09-24T03:40:47.460Z,99.90
2022-09-24T03:42:52.712Z,99.90
2022-09-24T03:44:55.925Z,99.90
2022-09-24T03:46:59.367Z,99.90
2022-09-24T03:49:02.785Z,99.90
2022-09-24T03:51:07.404Z,99.90
2022-09-24T03:53:11.472Z,99.90
2022-09-24T03:55:14.831Z,99.90
2022-09-24T03:57:18.120Z,99.90
2022-09-24T03:59:23.136Z,99.90
2022-09-24T04:01:26.438Z,99.90
2022-09-24T04:03:29.799Z,99.90
2022-09-24T04:05:34.021Z,99.90
2022-09-24T04:07:37.299Z,99.90
2022-09-24T04:09:41.624Z,99.90
2022-09-24T04:11:44.847Z,99.90
2022-09-24T04:13:48.148Z,99.90
2022-09-24T04:15:53.820Z,99.90
2022-09-24T04:17:58.901Z,99.90
2022-09-24T04:20:02.912Z,99.90
2022-09-24T04:22:06.103Z,99.90
2022-09-24T04:24:09.573Z,99.90
2022-09-24T04:26:12.930Z,99.90
2022-09-24T04:28:16.239Z,99.90
2022-09-24T04:30:19.619Z,99.90
2022-09-24T04:32:24.305Z,99.90
2022-09-24T04:34:27.694Z,99.90
2022-09-24T04:36:30.972Z,99.90
2022-09-24T04:38:34.243Z,99.90
2022-09-24T04:40:37.632Z,99.90
2022-09-24T04:42:41.575Z,99.90
2022-09-24T04:44:47.877Z,99.90
2022-09-24T04:46:51.524Z,99.90
2022-09-24T04:48:56.149Z,99.90
2022-09-24T04:50:59.474Z,99.90
2022-09-24T04:53:03.420Z,99.90
2022-09-24T04:55:07.753Z,99.90
2022-09-24T04:57:11.155Z,99.90
2022-09-24T04:59:14.530Z,99.90
2022-09-24T05:01:17.874Z,99.90
2022-09-24T05:03:21.621Z,99.90
2022-09-24T05:05:26.666Z,99.90
2022-09-24T05:07:29.844Z,99.90
2022-09-24T05:09:33.423Z,99.90
2022-09-24T05:11:36.685Z,99.90
2022-09-24T05:13:39.994Z,99.90
2022-09-24T05:15:43.584Z,99.90
2022-09-24T05:17:47.119Z,99.90
2022-09-24T05:19:50.890Z,99.90
2022-09-24T05:21:55.490Z,99.90
2022-09-24T05:23:58.888Z,99.90
2022-09-24T05:26:19.689Z,99.90
2022-09-24T05:28:23.072Z,99.90
2022-09-24T05:30:27.271Z,99.90
2022-09-24T05:32:32.216Z,99.90
2022-09-24T05:34:35.698Z,99.90
2022-09-24T05:36:39.021Z,99.90
2022-09-24T05:38:43.717Z,99.90
2022-09-24T05:40:49.649Z,99.90
2022-09-24T05:42:53.736Z,99.90
2022-09-24T05:44:57.164Z,99.90
2022-09-24T05:47:00.956Z,99.90
2022-09-24T05:49:04.478Z,99.90
2022-09-24T05:51:07.871Z,99.90
2022-09-24T05:53:11.868Z,99.90
2022-09-24T05:55:16.693Z,99.90
2022-09-24T05:57:19.951Z,99.90
2022-09-24T05:59:24.050Z,99.90
2022-09-24T06:01:30.097Z,99.90
2022-09-24T06:03:33.682Z,99.90
2022-09-24T06:05:36.934Z,99.90
2022-09-24T06:07:40.827Z,99.90
2022-09-24T06:09:44.233Z,99.90
2022-09-24T06:11:51.134Z,99.90
2022-09-24T06:13:54.386Z,99.90
2022-09-24T06:16:02.016Z,99.90
2022-09-24T06:18:05.710Z,99.90
2022-09-24T06:20:09.487Z,99.90
2022-09-24T06:22:12.665Z,99.90
2022-09-24T06:24:16.063Z,99.90
2022-09-24T06:26:19.681Z,99.90
2022-09-24T06:28:25.396Z,99.90
2022-09-24T06:30:29.843Z,99.90
2022-09-24T06:32:33.374Z,99.90
2022-09-24T06:34:36.666Z,99.90
2022-09-24T06:36:40.300Z,99.90
2022-09-24T06:38:45.442Z,99.90
2022-09-24T06:40:49.629Z,99.90
2022-09-24T06:42:53.715Z,99.90
2022-09-24T06:44:58.510Z,99.90
2022-09-24T06:47:02.050Z,99.90
2022-09-24T06:49:05.479Z,99.90
2022-09-24T06:51:08.959Z,99.90
2022-09-24T06:53:13.780Z,99.90
2022-09-24T06:55:17.711Z,99.90
2022-09-24T06:57:24.229Z,99.90
2022-09-24T06:59:29.934Z,99.90
2022-09-24T07:01:34.994Z,99.90
2022-09-24T07:05:43.911Z,99.90
2022-09-24T07:09:51.681Z,99.90
2022-09-24T07:11:57.038Z,99.90
2022-09-24T07:16:04.462Z,99.90
2022-09-24T07:18:09.254Z,99.90
2022-09-24T07:20:12.560Z,99.90
2022-09-24T07:22:15.819Z,99.90
2022-09-24T07:24:19.111Z,97.10
2022-09-24T07:26:22.471Z,96.80
2022-09-24T07:28:26.472Z,95.00
2022-09-24T07:30:29.839Z,88.00
2022-09-24T07:34:38.112Z,77.00
2022-09-24T07:36:44.603Z,73.50
2022-09-24T07:38:47.853Z,69.10
2022-09-24T07:40:51.194Z,69.20
2022-09-24T07:42:55.348Z,64.60
2022-09-24T07:47:03.011Z,60.30
2022-09-24T07:49:06.539Z,59.30
2022-09-24T07:51:16.480Z,59.40
2022-09-24T07:55:26.014Z,52.80
2022-09-24T08:14:06.063Z,49.60
2022-09-24T08:16:09.561Z,50.40
2022-09-24T08:18:12.805Z,47.10
2022-09-24T08:22:19.738Z,45.10
2022-09-24T08:24:24.395Z,43.80
2022-09-24T08:26:27.632Z,45.20
2022-09-24T08:28:31.445Z,43.40
2022-09-24T08:32:39.007Z,43.20
2022-09-24T08:34:42.381Z,46.30
2022-09-24T08:38:49.369Z,39.60
2022-09-24T08:45:29.667Z,43.40
2022-09-24T08:47:39.031Z,43.00
2022-09-24T08:49:46.359Z,46.00
2022-09-24T08:52:02.871Z,46.30
2022-09-24T08:54:09.518Z,46.60
2022-09-24T08:56:15.239Z,44.60
2022-09-24T08:58:33.752Z,46.70
2022-09-24T09:00:48.026Z,45.20
2022-09-24T09:03:00.295Z,45.70
2022-09-24T09:05:15.494Z,48.40
2022-09-24T09:07:22.661Z,49.40
2022-09-24T09:09:32.232Z,50.30
2022-09-24T09:11:39.002Z,52.80
2022-09-24T09:13:49.754Z,52.00
2022-09-24T09:15:59.532Z,53.00
2022-09-24T09:18:06.314Z,54.50
2022-09-24T09:20:17.020Z,55.60
2022-09-24T09:22:26.098Z,54.20
2022-09-24T09:24:39.704Z,55.70
2022-09-24T09:26:47.934Z,59.10
2022-09-24T09:28:51.558Z,57.90
2022-09-24T09:31:07.049Z,59.70
2022-09-24T09:33:21.662Z,59.30
2022-09-24T09:35:31.408Z,56.60
2022-09-24T09:37:41.277Z,59.60
2022-09-24T09:39:52.633Z,58.10
2022-09-24T09:42:06.057Z,63.60
2022-09-24T09:48:27.014Z,55.60
2022-09-24T09:50:35.951Z,55.50
2022-09-24T09:56:50.310Z,46.50
2022-09-24T10:01:09.995Z,44.70
2022-09-24T10:03:24.798Z,47.50
2022-09-24T10:05:29.170Z,48.70
2022-09-24T10:07:36.434Z,45.30
2022-09-24T10:20:03.459Z,43.30
2022-09-24T10:22:15.158Z,45.30
2022-09-24T10:24:22.828Z,41.90
2022-09-24T10:26:37.778Z,42.30
2022-09-24T10:41:35.981Z,40.30
2022-09-24T10:43:39.231Z,40.80
2022-09-24T10:46:13.403Z,41.90
2022-09-24T10:48:24.204Z,40.60
2022-09-24T10:59:32.799Z,42.10
2022-09-24T11:01:46.733Z,40.40
2022-09-24T11:08:17.506Z,38.70
2022-09-24T11:10:30.006Z,40.20
2022-09-24T11:12:42.584Z,41.70
2022-09-24T11:15:01.219Z,42.20
2022-09-24T11:19:44.603Z,39.20
2022-09-24T11:22:08.373Z,41.90
2022-09-24T11:24:42.174Z,43.20
2022-09-24T11:26:57.218Z,41.80
2022-09-24T11:29:17.008Z,43.20
2022-09-24T11:31:30.870Z,46.00
2022-09-24T11:33:53.220Z,44.60
2022-09-24T11:36:17.355Z,45.30
2022-09-24T11:38:32.138Z,47.20
2022-09-24T11:40:53.223Z,46.80
2022-09-24T11:43:08.312Z,47.40
2022-09-24T11:45:36.993Z,47.60
2022-09-24T11:48:07.340Z,44.40
2022-09-24T11:50:36.727Z,43.10
2022-09-24T11:52:46.258Z,44.10
2022-09-24T11:54:57.629Z,43.60
2022-09-24T11:57:07.792Z,43.20
2022-09-24T11:59:18.608Z,43.00
2022-09-24T12:01:25.028Z,45.00
2022-09-24T12:05:40.761Z,43.90
2022-09-24T12:07:50.754Z,48.40
2022-09-24T12:10:00.764Z,47.10
2022-09-24T12:12:09.604Z,46.30
2022-09-24T12:14:18.013Z,47.60
2022-09-24T12:16:25.942Z,48.20
2022-09-24T12:18:33.561Z,49.70
2022-09-24T12:20:46.386Z,48.30
2022-09-24T12:22:56.010Z,53.00
2022-09-24T12:25:01.873Z,47.70
2022-09-24T12:27:13.389Z,51.30
2022-09-24T12:29:52.029Z,49.30
2022-09-24T12:32:20.897Z,47.40
2022-09-24T12:34:31.374Z,47.50
2022-09-24T12:36:57.126Z,50.60
2022-09-24T12:39:05.704Z,49.50
2022-09-24T12:41:29.164Z,47.20
2022-09-24T12:43:39.591Z,46.90
2022-09-24T12:45:42.915Z,51.00
2022-09-24T12:47:51.819Z,47.80
2022-09-24T12:49:58.094Z,45.40
2022-09-24T12:52:05.993Z,45.90
2022-09-24T12:54:24.581Z,48.90
2022-09-24T12:56:30.925Z,46.10
2022-09-24T12:58:40.971Z,46.00
2022-09-24T13:00:47.385Z,46.30
2022-09-24T13:05:21.991Z,45.40
2022-09-24T13:07:35.739Z,44.10
2022-09-24T13:09:41.542Z,45.10
2022-09-24T13:11:44.942Z,46.50
2022-09-24T13:13:58.967Z,48.50
2022-09-24T13:16:04.627Z,49.60
2022-09-24T13:18:22.337Z,50.70
2022-09-24T13:20:27.115Z,51.90
2022-09-24T13:22:34.672Z,52.10
2022-09-24T13:24:49.817Z,49.90
2022-09-24T13:26:53.210Z,50.30
2022-09-24T13:28:58.962Z,53.10
2022-09-24T13:31:12.082Z,50.20
2022-09-24T13:33:24.223Z,53.70
2022-09-24T13:35:31.446Z,52.50
2022-09-24T13:37:41.099Z,50.30
2022-09-24T13:39:48.798Z,48.90
2022-09-24T13:42:00.689Z,50.60
2022-09-24T13:44:12.986Z,50.20
2022-09-24T13:46:19.204Z,51.30
2022-09-24T13:48:34.717Z,50.30
2022-09-24T13:50:41.610Z,50.40
2022-09-24T13:52:50.345Z,50.70
2022-09-24T13:54:56.838Z,52.50
2022-09-24T13:57:04.266Z,51.70
2022-09-24T13:59:12.919Z,56.00
2022-09-24T14:01:20.217Z,55.00
2022-09-24T14:03:26.684Z,54.70
2022-09-24T14:05:31.618Z,56.10
2022-09-24T14:07:35.179Z,54.80
2022-09-24T14:09:39.878Z,57.30
2022-09-24T14:11:50.756Z,56.80
2022-09-24T14:13:56.361Z,56.40
2022-09-24T14:16:02.929Z,58.50
2022-09-24T14:18:12.100Z,58.20
2022-09-24T14:20:16.954Z,58.40
2022-09-24T14:22:24.663Z,58.30
2022-09-24T14:24:31.070Z,57.10
2022-09-24T14:26:39.785Z,57.40
2022-09-24T14:28:43.274Z,59.30
2022-09-24T14:30:51.351Z,61.40
2022-09-24T14:32:57.559Z,63.10
2022-09-24T14:35:04.878Z,64.70
2022-09-24T14:37:11.285Z,68.70
2022-09-24T14:39:15.397Z,71.60
2022-09-24T14:41:22.993Z,69.50
2022-09-24T14:43:33.341Z,72.30
2022-09-24T14:45:38.900Z,65.40
2022-09-24T14:47:42.243Z,70.90
2022-09-24T14:49:46.302Z,67.70
2022-09-24T14:51:54.915Z,63.70
2022-09-24T14:54:03.249Z,71.40
2022-09-24T14:56:21.367Z,76.10
2022-09-24T14:58:36.641Z,80.50
2022-09-24T15:00:50.860Z,83.60
2022-09-24T15:02:59.695Z,88.40
2022-09-24T15:05:06.819Z,88.20
2022-09-24T15:07:17.036Z,88.30
2022-09-24T15:09:27.283Z,93.80
2022-09-24T15:11:34.280Z,99.80
2022-09-24T15:13:39.712Z,99.90
2022-09-24T15:15:43.430Z,99.90
2022-09-24T15:17:47.829Z,99.90
2022-09-24T15:19:54.684Z,99.90
2022-09-24T15:22:00.250Z,99.90
2022-09-24T15:24:04.956Z,99.90
2022-09-24T15:26:08.576Z,99.90
2022-09-24T15:28:14.807Z,99.90
2022-09-24T15:30:22.158Z,99.90
2022-09-24T15:32:26.504Z,99.90
2022-09-24T15:34:29.696Z,99.90
2022-09-24T15:36:33.400Z,99.90
2022-09-24T15:38:36.890Z,99.90
2022-09-24T15:40:42.459Z,99.90
2022-09-24T15:42:46.038Z,99.90
2022-09-24T15:44:50.812Z,99.90
2022-09-24T15:46:55.637Z,99.90
2022-09-24T15:48:59.072Z,99.90
2022-09-24T15:51:09.002Z,99.90
2022-09-24T15:53:21.211Z,99.90
2022-09-24T15:55:25.226Z,99.90
2022-09-24T15:57:28.840Z,99.90
2022-09-24T15:59:32.284Z,99.90
2022-09-24T16:01:35.650Z,99.90
2022-09-24T16:03:40.663Z,99.90
2022-09-24T16:05:44.135Z,99.90
2022-09-24T16:07:47.498Z,99.90
2022-09-24T16:09:50.662Z,99.90
2022-09-24T16:11:55.456Z,99.90
2022-09-24T16:13:58.740Z,99.90
2022-09-24T16:16:05.488Z,99.90
2022-09-24T16:18:12.649Z,99.90
2022-09-24T16:20:17.726Z,99.90
2022-09-24T16:22:21.188Z,99.90
2022-09-24T16:24:24.686Z,99.90
2022-09-24T16:26:28.185Z,99.90
2022-09-24T16:28:31.835Z,99.90
2022-09-24T16:30:38.649Z,99.90
2022-09-24T16:32:42.189Z,99.90
2022-09-24T16:34:45.438Z,99.90
2022-09-24T16:36:50.077Z,99.90
2022-09-24T16:38:53.356Z,99.90
2022-09-24T16:41:01.055Z,99.90
2022-09-24T16:43:04.508Z,99.90
2022-09-24T16:45:10.523Z,99.90
2022-09-24T16:47:16.294Z,99.90
2022-09-24T16:49:19.633Z,99.90
2022-09-24T16:51:22.946Z,99.90
2022-09-24T16:53:27.543Z,99.90
2022-09-24T16:55:30.778Z,99.90
2022-09-24T16:57:36.616Z,99.90
2022-09-24T16:59:39.783Z,99.90
2022-09-24T17:01:43.415Z,99.90
2022-09-24T17:03:51.392Z,99.90
2022-09-24T17:05:54.785Z,99.90
2022-09-24T17:07:58.270Z,99.90
2022-09-24T17:10:13.704Z,99.90
2022-09-24T17:12:17.050Z,99.90
2022-09-24T17:14:20.305Z,99.90
2022-09-24T17:16:24.790Z,99.90
2022-09-24T17:18:28.215Z,99.90
2022-09-24T17:20:31.852Z,99.90
2022-09-24T17:22:35.673Z,99.90
2022-09-24T17:24:40.219Z,99.90
2022-09-24T17:26:45.492Z,99.90
2022-09-24T17:28:51.890Z,99.90
2022-09-24T17:30:55.558Z,99.90
2022-09-24T17:32:58.842Z,99.90
2022-09-24T17:35:02.021Z,99.90
2022-09-24T17:37:05.524Z,99.90
2022-09-24T17:39:09.115Z,99.90
2022-09-24T17:41:14.172Z,99.90
2022-09-24T17:43:18.868Z,99.90
2022-09-24T17:45:22.803Z,99.90
2022-09-24T17:47:46.429Z,99.90
2022-09-24T17:49:49.925Z,99.90
2022-09-24T17:51:54.341Z,99.90
2022-09-24T17:53:57.786Z,99.90
2022-09-24T17:56:01.329Z,99.90
2022-09-24T17:58:04.737Z,99.90
2022-09-24T18:00:11.306Z,99.90
2022-09-24T18:02:14.915Z,99.90
2022-09-24T18:04:21.145Z,99.90
2022-09-24T18:06:30.567Z,99.90
2022-09-24T18:08:37.665Z,99.90
2022-09-24T18:10:41.154Z,99.90
2022-09-24T18:12:44.458Z,99.90
2022-09-24T18:14:47.835Z,99.90
2022-09-24T18:16:53.000Z,99.90
2022-09-24T18:18:57.285Z,99.90
2022-09-24T18:21:02.275Z,99.90
2022-09-24T18:23:07.143Z,99.90
2022-09-24T18:25:11.888Z,99.90
2022-09-24T18:27:16.108Z,99.90
2022-09-24T18:29:20.331Z,99.90
2022-09-24T18:31:25.512Z,99.90
2022-09-24T18:33:30.378Z,99.90
2022-09-24T18:35:34.871Z,99.90
2022-09-24T18:37:38.663Z,99.90
2022-09-24T18:39:42.163Z,99.90
2022-09-24T18:41:45.660Z,99.90
2022-09-24T18:43:49.391Z,99.90
2022-09-24T18:45:53.151Z,99.90
2022-09-24T18:47:56.546Z,99.90
2022-09-24T18:50:02.570Z,99.90
2022-09-24T18:52:06.007Z,99.90
2022-09-24T18:54:13.697Z,99.90
2022-09-24T18:56:16.931Z,99.90
2022-09-24T18:58:20.427Z,99.90
2022-09-24T19:00:41.374Z,99.90
2022-09-24T19:02:44.924Z,99.90
2022-09-24T19:04:48.431Z,99.90
2022-09-24T19:06:53.219Z,99.90
2022-09-24T19:08:56.798Z,99.90
2022-09-24T19:11:04.909Z,99.90
2022-09-24T19:13:08.951Z,99.90
2022-09-24T19:15:12.259Z,99.90
2022-09-24T19:17:15.632Z,99.90
2022-09-24T19:19:19.076Z,99.90
2022-09-24T19:21:24.257Z,99.90
2022-09-24T19:23:29.979Z,99.90
2022-09-24T19:25:34.585Z,99.90
2022-09-24T19:27:40.441Z,99.90
2022-09-24T19:29:44.054Z,99.90
2022-09-24T19:31:48.812Z,99.90
2022-09-24T19:33:53.215Z,99.90
2022-09-24T19:35:58.323Z,99.90
2022-09-24T19:38:01.719Z,99.90
2022-09-24T19:40:07.660Z,99.90
2022-09-24T19:44:30.737Z,99.90
2022-09-24T19:46:34.609Z,99.90
2022-09-24T19:48:39.850Z,99.90
2022-09-24T19:50:43.369Z,99.90
2022-09-24T19:52:48.374Z,99.90
2022-09-24T19:54:51.766Z,99.90
2022-09-24T19:56:56.599Z,99.90
2022-09-24T19:59:01.448Z,99.90
2022-09-24T20:01:14.821Z,99.90
2022-09-24T20:03:20.624Z,99.90
2022-09-24T20:05:24.114Z,99.90
2022-09-24T20:07:27.614Z,99.90
2022-09-24T20:09:31.315Z,99.90
2022-09-24T20:11:35.021Z,99.90
2022-09-24T20:13:46.299Z,99.90
2022-09-24T20:15:59.428Z,99.90
2022-09-24T20:18:02.873Z,99.90
2022-09-24T20:20:07.333Z,99.90
2022-09-24T20:22:13.976Z,99.90
2022-09-24T20:24:20.726Z,99.90
2022-09-24T20:26:41.656Z,99.90
2022-09-24T20:28:46.627Z,99.90
2022-09-24T20:30:50.001Z,99.90
2022-09-24T20:32:53.377Z,99.90
2022-09-24T20:34:56.762Z,99.90
2022-09-24T20:37:01.049Z,99.90
2022-09-24T20:39:05.130Z,99.90
2022-09-24T20:41:09.015Z,99.90
2022-09-24T20:43:12.751Z,99.90
2022-09-24T20:45:17.664Z,99.90
2022-09-24T20:47:21.185Z,99.90
2022-09-24T20:49:25.217Z,99.90
2022-09-24T20:51:30.807Z,99.90
2022-09-24T20:53:34.960Z,99.90
2022-09-24T20:55:40.501Z,99.90
2022-09-24T20:57:44.690Z,99.90
2022-09-24T20:59:49.339Z,99.90
2022-09-24T21:01:54.308Z,99.90
2022-09-24T21:03:58.360Z,99.90
2022-09-24T21:06:04.024Z,99.90
2022-09-24T21:08:08.904Z,99.90
2022-09-24T21:10:13.899Z,99.90
2022-09-24T21:12:17.276Z,99.90
2022-09-24T21:14:20.561Z,99.90
2022-09-24T21:16:25.816Z,99.90
2022-09-24T21:18:39.555Z,99.90
2022-09-24T21:20:44.453Z,99.90
2022-09-24T21:22:49.591Z,99.90
2022-09-24T21:24:52.859Z,99.90
2022-09-24T21:26:59.182Z,99.90
2022-09-24T21:29:05.502Z,99.90
2022-09-24T21:31:09.595Z,99.90
2022-09-24T21:33:13.200Z,99.90
2022-09-24T21:35:18.053Z,99.90
2022-09-24T21:37:22.492Z,99.90
2022-09-24T21:39:28.986Z,99.90
2022-09-24T21:41:34.079Z,99.90
2022-09-24T21:43:37.545Z,99.90
2022-09-24T21:45:41.138Z,99.90
2022-09-24T21:47:44.337Z,99.90
2022-09-24T21:49:48.166Z,99.90
2022-09-24T21:51:55.817Z,99.90
2022-09-24T21:54:01.909Z,99.90
2022-09-24T21:56:06.733Z,99.90
2022-09-24T21:58:09.947Z,99.90
2022-09-24T22:00:14.299Z,99.90
2022-09-24T22:02:17.672Z,99.90
2022-09-24T22:04:21.250Z,99.90
2022-09-24T22:06:28.678Z,99.90
2022-09-24T22:08:33.608Z,99.90
2022-09-24T22:10:38.408Z,99.90
2022-09-24T22:12:41.798Z,99.90
2022-09-24T22:14:45.634Z,99.90
2022-09-24T22:16:49.349Z,99.90
2022-09-24T22:18:53.154Z,99.90
2022-09-24T22:20:57.138Z,99.90
2022-09-24T22:23:00.731Z,99.90
2022-09-24T22:25:06.369Z,99.90
2022-09-24T22:27:09.727Z,99.90
2022-09-24T22:29:13.096Z,99.90
2022-09-24T22:31:18.141Z,99.90
2022-09-24T22:33:39.114Z,99.90
2022-09-24T22:35:51.309Z,99.90
2022-09-24T22:37:55.191Z,99.90
2022-09-24T22:39:58.812Z,99.90
2022-09-24T22:42:03.623Z,99.90
2022-09-24T22:44:07.662Z,99.90
2022-09-24T22:46:13.421Z,99.90
2022-09-24T22:48:16.869Z,99.90
2022-09-24T22:50:20.362Z,99.90
2022-09-24T22:52:24.155Z,99.90
2022-09-24T22:54:27.478Z,99.90
2022-09-24T22:56:31.153Z,99.90
2022-09-24T22:58:36.593Z,99.90
2022-09-24T23:00:39.986Z,99.90
2022-09-24T23:02:43.370Z,99.90
2022-09-24T23:04:46.940Z,99.90
2022-09-24T23:06:50.473Z,99.90
2022-09-24T23:08:55.806Z,99.90
2022-09-24T23:10:59.136Z,99.90
2022-09-24T23:13:02.382Z,99.90
2022-09-24T23:15:08.543Z,99.90
2022-09-24T23:17:12.007Z,99.90
2022-09-24T23:19:17.789Z,99.90
2022-09-24T23:21:22.594Z,99.90
2022-09-24T23:23:26.260Z,99.90
2022-09-24T23:25:29.647Z,99.90
2022-09-24T23:27:33.137Z,99.90
2022-09-24T23:29:36.381Z,99.90
2022-09-24T23:31:41.365Z,99.90
2022-09-24T23:33:45.306Z,99.90
2022-09-24T23:35:54.374Z,99.90
2022-09-24T23:37:57.621Z,99.90
2022-09-24T23:40:01.551Z,99.90
2022-09-24T23:42:04.975Z,99.90
2022-09-24T23:44:08.373Z,99.90
2022-09-24T23:46:12.277Z,99.90
2022-09-24T23:48:17.314Z,99.90
2022-09-24T23:50:20.594Z,99.90
2022-09-24T23:52:23.948Z,99.90
2022-09-24T23:54:28.320Z,99.90
2022-09-24T23:56:31.582Z,99.90
2022-09-24T23:58:35.480Z,99.90
